sensor_id;sensor_type;location;lat;lon;timestamp;P1;durP1;ratioP1;P2;durP2;ratioP2
71164;SDS011;58859;55.132;-1.586;2022-11-20T00:01:14;3.67;;;2.10;;
71164;SDS011;58859;55.132;-1.586;2022-11-20T00:03:41;8.93;;;2.83;;
71164;SDS011;58859;55.132;-1.586;2022-11-20T00:06:08;10.17;;;3.20;;
71164;SDS011;58859;55.132;-1.586;2022-11-20T00:08:35;9.02;;;3.35;;
71164;SDS011;58859;55.132;-1.586;2022-11-20T00:11:08;11.57;;;2.95;;
71164;SDS011;58859;55.132;-1.586;2022-11-20T00:13:35;5.95;;;2.72;;
71164;SDS011;58859;55.132;-1.586;2022-11-20T00:16:02;8.77;;;3.30;;
71164;SDS011;58859;55.132;-1.586;2022-11-20T00:18:28;3.67;;;2.67;;
71164;SDS011;58859;55.132;-1.586;2022-11-20T00:20:59;6.63;;;3.47;;
71164;SDS011;58859;55.132;-1.586;2022-11-20T00:23:25;10.38;;;3.17;;
71164;SDS011;58859;55.132;-1.586;2022-11-20T00:25:51;7.63;;;3.37;;
71164;SDS011;58859;55.132;-1.586;2022-11-20T00:28:16;5.33;;;2.47;;
71164;SDS011;58859;55.132;-1.586;2022-11-20T00:30:41;8.52;;;3.50;;
71164;SDS011;58859;55.132;-1.586;2022-11-20T00:33:07;8.43;;;3.70;;
71164;SDS011;58859;55.132;-1.586;2022-11-20T00:35:32;9.30;;;4.17;;
71164;SDS011;58859;55.132;-1.586;2022-11-20T00:37:57;5.70;;;2.87;;
71164;SDS011;58859;55.132;-1.586;2022-11-20T00:40:23;7.30;;;4.07;;
71164;SDS011;58859;55.132;-1.586;2022-11-20T00:42:48;5.47;;;3.33;;
71164;SDS011;58859;55.132;-1.586;2022-11-20T00:45:14;9.07;;;4.27;;
71164;SDS011;58859;55.132;-1.586;2022-11-20T00:47:39;7.82;;;3.67;;
71164;SDS011;58859;55.132;-1.586;2022-11-20T00:50:04;8.77;;;3.63;;
71164;SDS011;58859;55.132;-1.586;2022-11-20T00:52:30;8.03;;;3.93;;
71164;SDS011;58859;55.132;-1.586;2022-11-20T00:54:55;5.03;;;3.50;;
71164;SDS011;58859;55.132;-1.586;2022-11-20T00:57:21;9.45;;;3.40;;
71164;SDS011;58859;55.132;-1.586;2022-11-20T00:59:46;6.37;;;2.77;;
71164;SDS011;58859;55.132;-1.586;2022-11-20T01:02:12;9.23;;;4.03;;
71164;SDS011;58859;55.132;-1.586;2022-11-20T01:04:37;6.23;;;4.07;;
71164;SDS011;58859;55.132;-1.586;2022-11-20T01:07:02;10.47;;;4.07;;
71164;SDS011;58859;55.132;-1.586;2022-11-20T01:09:28;8.37;;;4.00;;
71164;SDS011;58859;55.132;-1.586;2022-11-20T01:11:53;8.40;;;3.17;;
71164;SDS011;58859;55.132;-1.586;2022-11-20T01:14:19;8.07;;;4.63;;
71164;SDS011;58859;55.132;-1.586;2022-11-20T01:16:48;5.43;;;3.27;;
71164;SDS011;58859;55.132;-1.586;2022-11-20T01:19:18;8.45;;;4.32;;
71164;SDS011;58859;55.132;-1.586;2022-11-20T01:21:48;11.20;;;4.47;;
71164;SDS011;58859;55.132;-1.586;2022-11-20T01:24:15;7.32;;;3.92;;
71164;SDS011;58859;55.132;-1.586;2022-11-20T01:26:42;12.63;;;4.90;;
71164;SDS011;58859;55.132;-1.586;2022-11-20T01:29:15;10.18;;;4.45;;
71164;SDS011;58859;55.132;-1.586;2022-11-20T01:31:42;12.65;;;4.13;;
71164;SDS011;58859;55.132;-1.586;2022-11-20T01:34:12;6.85;;;3.95;;
71164;SDS011;58859;55.132;-1.586;2022-11-20T01:36:39;9.90;;;5.07;;
71164;SDS011;58859;55.132;-1.586;2022-11-20T01:39:06;8.93;;;5.27;;
71164;SDS011;58859;55.132;-1.586;2022-11-20T01:41:33;9.50;;;5.25;;
71164;SDS011;58859;55.132;-1.586;2022-11-20T01:44:18;11.00;;;5.18;;
71164;SDS011;58859;55.132;-1.586;2022-11-20T01:46:59;6.95;;;4.28;;
71164;SDS011;58859;55.132;-1.586;2022-11-20T01:49:28;13.93;;;5.22;;
71164;SDS011;58859;55.132;-1.586;2022-11-20T01:52:07;15.73;;;5.70;;
71164;SDS011;58859;55.132;-1.586;2022-11-20T01:54:42;12.75;;;4.90;;
71164;SDS011;58859;55.132;-1.586;2022-11-20T01:57:11;10.30;;;6.10;;
71164;SDS011;58859;55.132;-1.586;2022-11-20T01:59:38;11.63;;;5.80;;
71164;SDS011;58859;55.132;-1.586;2022-11-20T02:02:08;11.03;;;5.10;;
71164;SDS011;58859;55.132;-1.586;2022-11-20T02:04:34;14.23;;;6.15;;
71164;SDS011;58859;55.132;-1.586;2022-11-20T02:06:59;14.40;;;7.13;;
71164;SDS011;58859;55.132;-1.586;2022-11-20T02:09:26;11.73;;;5.70;;
71164;SDS011;58859;55.132;-1.586;2022-11-20T02:11:52;9.50;;;5.22;;
71164;SDS011;58859;55.132;-1.586;2022-11-20T02:14:18;17.17;;;7.80;;
71164;SDS011;58859;55.132;-1.586;2022-11-20T02:16:45;19.15;;;7.00;;
71164;SDS011;58859;55.132;-1.586;2022-11-20T02:19:28;11.77;;;6.63;;
71164;SDS011;58859;55.132;-1.586;2022-11-20T02:22:05;13.90;;;6.83;;
71164;SDS011;58859;55.132;-1.586;2022-11-20T02:24:34;17.63;;;6.85;;
71164;SDS011;58859;55.132;-1.586;2022-11-20T02:27:01;15.20;;;6.80;;
71164;SDS011;58859;55.132;-1.586;2022-11-20T02:29:39;14.00;;;6.20;;
71164;SDS011;58859;55.132;-1.586;2022-11-20T02:32:17;14.68;;;6.80;;
71164;SDS011;58859;55.132;-1.586;2022-11-20T02:34:50;10.98;;;6.38;;
71164;SDS011;58859;55.132;-1.586;2022-11-20T02:37:16;10.83;;;6.57;;
71164;SDS011;58859;55.132;-1.586;2022-11-20T02:39:41;14.15;;;7.50;;
71164;SDS011;58859;55.132;-1.586;2022-11-20T02:42:09;12.27;;;7.30;;
71164;SDS011;58859;55.132;-1.586;2022-11-20T02:44:35;15.27;;;8.30;;
71164;SDS011;58859;55.132;-1.586;2022-11-20T02:47:00;20.20;;;8.07;;
71164;SDS011;58859;55.132;-1.586;2022-11-20T02:49:26;12.80;;;7.07;;
71164;SDS011;58859;55.132;-1.586;2022-11-20T02:51:51;17.20;;;8.97;;
71164;SDS011;58859;55.132;-1.586;2022-11-20T02:54:16;19.27;;;7.60;;
71164;SDS011;58859;55.132;-1.586;2022-11-20T02:56:42;14.27;;;7.43;;
71164;SDS011;58859;55.132;-1.586;2022-11-20T02:59:08;17.10;;;7.10;;
71164;SDS011;58859;55.132;-1.586;2022-11-20T03:01:34;10.27;;;6.53;;
71164;SDS011;58859;55.132;-1.586;2022-11-20T03:03:59;13.45;;;8.25;;
71164;SDS011;58859;55.132;-1.586;2022-11-20T03:06:25;12.30;;;7.20;;
71164;SDS011;58859;55.132;-1.586;2022-11-20T03:08:50;17.57;;;8.10;;
71164;SDS011;58859;55.132;-1.586;2022-11-20T03:11:15;14.40;;;8.27;;
71164;SDS011;58859;55.132;-1.586;2022-11-20T03:13:41;15.40;;;7.72;;
71164;SDS011;58859;55.132;-1.586;2022-11-20T03:16:11;13.53;;;7.07;;
71164;SDS011;58859;55.132;-1.586;2022-11-20T03:18:38;14.98;;;8.52;;
71164;SDS011;58859;55.132;-1.586;2022-11-20T03:21:05;13.80;;;6.60;;
71164;SDS011;58859;55.132;-1.586;2022-11-20T03:23:31;15.20;;;8.30;;
71164;SDS011;58859;55.132;-1.586;2022-11-20T03:26:06;15.00;;;8.18;;
71164;SDS011;58859;55.132;-1.586;2022-11-20T03:28:36;13.82;;;8.30;;
71164;SDS011;58859;55.132;-1.586;2022-11-20T03:31:08;16.17;;;7.57;;
71164;SDS011;58859;55.132;-1.586;2022-11-20T03:33:35;15.27;;;7.47;;
71164;SDS011;58859;55.132;-1.586;2022-11-20T03:36:01;13.05;;;7.53;;
71164;SDS011;58859;55.132;-1.586;2022-11-20T03:38:30;13.63;;;8.30;;
71164;SDS011;58859;55.132;-1.586;2022-11-20T03:41:03;11.93;;;6.88;;
71164;SDS011;58859;55.132;-1.586;2022-11-20T03:43:33;14.40;;;8.07;;
71164;SDS011;58859;55.132;-1.586;2022-11-20T03:45:59;15.87;;;7.90;;
71164;SDS011;58859;55.132;-1.586;2022-11-20T03:48:25;14.23;;;8.00;;
71164;SDS011;58859;55.132;-1.586;2022-11-20T03:51:05;13.80;;;8.30;;
71164;SDS011;58859;55.132;-1.586;2022-11-20T03:53:34;16.10;;;8.40;;
71164;SDS011;58859;55.132;-1.586;2022-11-20T03:55:59;17.30;;;7.90;;
71164;SDS011;58859;55.132;-1.586;2022-11-20T03:58:25;15.77;;;7.60;;
71164;SDS011;58859;55.132;-1.586;2022-11-20T04:00:50;12.80;;;7.00;;
71164;SDS011;58859;55.132;-1.586;2022-11-20T04:03:15;13.60;;;6.70;;
71164;SDS011;58859;55.132;-1.586;2022-11-20T04:05:41;13.83;;;7.40;;
71164;SDS011;58859;55.132;-1.586;2022-11-20T04:08:06;14.07;;;6.13;;
71164;SDS011;58859;55.132;-1.586;2022-11-20T04:10:32;10.88;;;6.65;;
71164;SDS011;58859;55.132;-1.586;2022-11-20T04:12:57;15.73;;;8.87;;
71164;SDS011;58859;55.132;-1.586;2022-11-20T04:15:22;19.30;;;7.87;;
71164;SDS011;58859;55.132;-1.586;2022-11-20T04:17:48;15.87;;;7.63;;
71164;SDS011;58859;55.132;-1.586;2022-11-20T04:20:13;14.17;;;7.63;;
71164;SDS011;58859;55.132;-1.586;2022-11-20T04:22:39;17.52;;;8.40;;
71164;SDS011;58859;55.132;-1.586;2022-11-20T04:25:05;18.70;;;8.80;;
71164;SDS011;58859;55.132;-1.586;2022-11-20T04:27:30;16.40;;;8.65;;
71164;SDS011;58859;55.132;-1.586;2022-11-20T04:29:57;13.93;;;7.77;;
71164;SDS011;58859;55.132;-1.586;2022-11-20T04:32:22;17.02;;;9.10;;
71164;SDS011;58859;55.132;-1.586;2022-11-20T04:34:48;13.70;;;7.30;;
71164;SDS011;58859;55.132;-1.586;2022-11-20T04:37:13;16.03;;;8.30;;
71164;SDS011;58859;55.132;-1.586;2022-11-20T04:39:38;14.27;;;7.20;;
71164;SDS011;58859;55.132;-1.586;2022-11-20T04:42:04;18.43;;;8.60;;
71164;SDS011;58859;55.132;-1.586;2022-11-20T04:44:48;16.60;;;8.30;;
71164;SDS011;58859;55.132;-1.586;2022-11-20T04:47:13;16.03;;;7.90;;
71164;SDS011;58859;55.132;-1.586;2022-11-20T04:49:39;14.13;;;7.55;;
71164;SDS011;58859;55.132;-1.586;2022-11-20T04:52:05;15.47;;;8.30;;
71164;SDS011;58859;55.132;-1.586;2022-11-20T04:54:30;19.07;;;7.90;;
71164;SDS011;58859;55.132;-1.586;2022-11-20T04:56:55;16.95;;;7.43;;
71164;SDS011;58859;55.132;-1.586;2022-11-20T04:59:21;15.40;;;8.80;;
71164;SDS011;58859;55.132;-1.586;2022-11-20T05:01:47;13.23;;;7.57;;
71164;SDS011;58859;55.132;-1.586;2022-11-20T05:04:12;16.17;;;8.03;;
71164;SDS011;58859;55.132;-1.586;2022-11-20T05:06:37;21.08;;;8.65;;
71164;SDS011;58859;55.132;-1.586;2022-11-20T05:09:03;28.20;;;9.03;;
71164;SDS011;58859;55.132;-1.586;2022-11-20T05:11:28;12.53;;;7.37;;
71164;SDS011;58859;55.132;-1.586;2022-11-20T05:13:54;18.53;;;8.50;;
71164;SDS011;58859;55.132;-1.586;2022-11-20T05:16:23;16.48;;;7.95;;
71164;SDS011;58859;55.132;-1.586;2022-11-20T05:18:49;19.05;;;7.13;;
71164;SDS011;58859;55.132;-1.586;2022-11-20T05:21:15;14.80;;;7.13;;
71164;SDS011;58859;55.132;-1.586;2022-11-20T05:23:42;16.60;;;7.82;;
71164;SDS011;58859;55.132;-1.586;2022-11-20T05:26:11;13.23;;;7.82;;
71164;SDS011;58859;55.132;-1.586;2022-11-20T05:28:38;16.50;;;7.75;;
71164;SDS011;58859;55.132;-1.586;2022-11-20T05:31:11;16.50;;;8.07;;
71164;SDS011;58859;55.132;-1.586;2022-11-20T05:33:39;15.80;;;7.93;;
71164;SDS011;58859;55.132;-1.586;2022-11-20T05:36:05;11.85;;;6.90;;
71164;SDS011;58859;55.132;-1.586;2022-11-20T05:38:31;15.07;;;7.65;;
71164;SDS011;58859;55.132;-1.586;2022-11-20T05:41:07;10.77;;;6.90;;
71164;SDS011;58859;55.132;-1.586;2022-11-20T05:43:37;16.52;;;8.32;;
71164;SDS011;58859;55.132;-1.586;2022-11-20T05:46:04;16.60;;;8.18;;
71164;SDS011;58859;55.132;-1.586;2022-11-20T05:48:30;10.60;;;6.57;;
71164;SDS011;58859;55.132;-1.586;2022-11-20T05:50:57;12.70;;;7.03;;
71164;SDS011;58859;55.132;-1.586;2022-11-20T05:53:23;11.77;;;7.07;;
71164;SDS011;58859;55.132;-1.586;2022-11-20T05:55:55;10.67;;;5.00;;
71164;SDS011;58859;55.132;-1.586;2022-11-20T05:58:24;9.88;;;5.63;;
71164;SDS011;58859;55.132;-1.586;2022-11-20T06:00:50;8.73;;;4.83;;
71164;SDS011;58859;55.132;-1.586;2022-11-20T06:03:15;13.02;;;8.25;;
71164;SDS011;58859;55.132;-1.586;2022-11-20T06:05:41;12.60;;;6.57;;
71164;SDS011;58859;55.132;-1.586;2022-11-20T06:08:06;9.03;;;6.37;;
71164;SDS011;58859;55.132;-1.586;2022-11-20T06:10:31;12.30;;;7.17;;
71164;SDS011;58859;55.132;-1.586;2022-11-20T06:12:57;8.10;;;5.43;;
71164;SDS011;58859;55.132;-1.586;2022-11-20T06:15:23;8.52;;;4.82;;
71164;SDS011;58859;55.132;-1.586;2022-11-20T06:17:51;13.17;;;6.67;;
71164;SDS011;58859;55.132;-1.586;2022-11-20T06:20:17;8.95;;;6.45;;
71164;SDS011;58859;55.132;-1.586;2022-11-20T06:22:43;9.60;;;5.67;;
71164;SDS011;58859;55.132;-1.586;2022-11-20T06:25:08;8.53;;;5.00;;
71164;SDS011;58859;55.132;-1.586;2022-11-20T06:27:34;12.30;;;6.03;;
71164;SDS011;58859;55.132;-1.586;2022-11-20T06:29:59;12.80;;;6.47;;
71164;SDS011;58859;55.132;-1.586;2022-11-20T06:32:24;7.80;;;5.00;;
71164;SDS011;58859;55.132;-1.586;2022-11-20T06:34:50;10.20;;;6.30;;
71164;SDS011;58859;55.132;-1.586;2022-11-20T06:37:15;8.30;;;5.90;;
71164;SDS011;58859;55.132;-1.586;2022-11-20T06:39:41;10.25;;;5.70;;
71164;SDS011;58859;55.132;-1.586;2022-11-20T06:42:06;9.50;;;5.28;;
71164;SDS011;58859;55.132;-1.586;2022-11-20T06:44:32;11.43;;;6.43;;
71164;SDS011;58859;55.132;-1.586;2022-11-20T06:46:57;9.23;;;5.80;;
71164;SDS011;58859;55.132;-1.586;2022-11-20T06:49:23;10.55;;;5.68;;
71164;SDS011;58859;55.132;-1.586;2022-11-20T06:51:48;12.15;;;6.18;;
71164;SDS011;58859;55.132;-1.586;2022-11-20T06:54:14;15.40;;;6.20;;
71164;SDS011;58859;55.132;-1.586;2022-11-20T06:56:39;8.93;;;5.27;;
71164;SDS011;58859;55.132;-1.586;2022-11-20T06:59:05;9.60;;;6.25;;
71164;SDS011;58859;55.132;-1.586;2022-11-20T07:01:31;8.70;;;6.18;;
71164;SDS011;58859;55.132;-1.586;2022-11-20T07:03:57;15.83;;;7.47;;
71164;SDS011;58859;55.132;-1.586;2022-11-20T07:06:22;11.07;;;6.13;;
71164;SDS011;58859;55.132;-1.586;2022-11-20T07:08:49;12.07;;;6.93;;
71164;SDS011;58859;55.132;-1.586;2022-11-20T07:11:16;8.40;;;6.07;;
71164;SDS011;58859;55.132;-1.586;2022-11-20T07:13:41;12.97;;;6.77;;
71164;SDS011;58859;55.132;-1.586;2022-11-20T07:16:07;10.47;;;6.00;;
71164;SDS011;58859;55.132;-1.586;2022-11-20T07:18:33;13.27;;;6.53;;
71164;SDS011;58859;55.132;-1.586;2022-11-20T07:21:02;10.27;;;5.77;;
71164;SDS011;58859;55.132;-1.586;2022-11-20T07:23:28;11.45;;;6.47;;
71164;SDS011;58859;55.132;-1.586;2022-11-20T07:25:53;10.60;;;6.73;;
71164;SDS011;58859;55.132;-1.586;2022-11-20T07:28:19;7.78;;;5.53;;
71164;SDS011;58859;55.132;-1.586;2022-11-20T07:30:49;8.50;;;5.35;;
71164;SDS011;58859;55.132;-1.586;2022-11-20T07:33:17;9.17;;;5.93;;
71164;SDS011;58859;55.132;-1.586;2022-11-20T07:35:43;9.65;;;6.03;;
71164;SDS011;58859;55.132;-1.586;2022-11-20T07:38:09;8.47;;;6.40;;
71164;SDS011;58859;55.132;-1.586;2022-11-20T07:40:34;10.43;;;5.70;;
71164;SDS011;58859;55.132;-1.586;2022-11-20T07:42:59;9.60;;;5.85;;
71164;SDS011;58859;55.132;-1.586;2022-11-20T07:45:25;8.50;;;5.83;;
71164;SDS011;58859;55.132;-1.586;2022-11-20T07:47:50;11.90;;;5.73;;
71164;SDS011;58859;55.132;-1.586;2022-11-20T07:50:16;10.35;;;6.10;;
71164;SDS011;58859;55.132;-1.586;2022-11-20T07:52:42;9.93;;;6.00;;
71164;SDS011;58859;55.132;-1.586;2022-11-20T07:55:08;9.60;;;6.50;;
71164;SDS011;58859;55.132;-1.586;2022-11-20T07:57:34;8.95;;;5.68;;
71164;SDS011;58859;55.132;-1.586;2022-11-20T07:59:59;9.23;;;5.97;;
71164;SDS011;58859;55.132;-1.586;2022-11-20T08:02:25;8.25;;;6.13;;
71164;SDS011;58859;55.132;-1.586;2022-11-20T08:04:50;8.33;;;5.57;;
71164;SDS011;58859;55.132;-1.586;2022-11-20T08:07:16;8.50;;;5.50;;
71164;SDS011;58859;55.132;-1.586;2022-11-20T08:09:41;7.57;;;5.00;;
71164;SDS011;58859;55.132;-1.586;2022-11-20T08:12:06;11.03;;;6.50;;
71164;SDS011;58859;55.132;-1.586;2022-11-20T08:14:50;12.50;;;7.03;;
71164;SDS011;58859;55.132;-1.586;2022-11-20T08:17:16;9.67;;;6.60;;
71164;SDS011;58859;55.132;-1.586;2022-11-20T08:19:41;10.63;;;6.32;;
71164;SDS011;58859;55.132;-1.586;2022-11-20T08:22:07;10.57;;;7.20;;
71164;SDS011;58859;55.132;-1.586;2022-11-20T08:24:32;9.87;;;5.27;;
71164;SDS011;58859;55.132;-1.586;2022-11-20T08:26:58;9.80;;;7.03;;
71164;SDS011;58859;55.132;-1.586;2022-11-20T08:29:24;8.70;;;5.55;;
71164;SDS011;58859;55.132;-1.586;2022-11-20T08:31:49;9.67;;;6.30;;
71164;SDS011;58859;55.132;-1.586;2022-11-20T08:34:15;11.27;;;6.67;;
71164;SDS011;58859;55.132;-1.586;2022-11-20T08:36:40;10.43;;;6.73;;
71164;SDS011;58859;55.132;-1.586;2022-11-20T08:39:05;10.55;;;6.57;;
71164;SDS011;58859;55.132;-1.586;2022-11-20T08:41:31;9.67;;;6.20;;
71164;SDS011;58859;55.132;-1.586;2022-11-20T08:44:01;9.63;;;6.87;;
71164;SDS011;58859;55.132;-1.586;2022-11-20T08:46:32;10.15;;;6.43;;
71164;SDS011;58859;55.132;-1.586;2022-11-20T08:49:05;10.55;;;6.90;;
71164;SDS011;58859;55.132;-1.586;2022-11-20T08:51:32;9.38;;;6.28;;
71164;SDS011;58859;55.132;-1.586;2022-11-20T08:53:57;9.10;;;6.37;;
71164;SDS011;58859;55.132;-1.586;2022-11-20T08:56:23;8.67;;;6.00;;
71164;SDS011;58859;55.132;-1.586;2022-11-20T08:58:49;9.80;;;6.28;;
71164;SDS011;58859;55.132;-1.586;2022-11-20T09:01:16;9.20;;;6.57;;
71164;SDS011;58859;55.132;-1.586;2022-11-20T09:03:42;10.63;;;6.70;;
71164;SDS011;58859;55.132;-1.586;2022-11-20T09:06:07;9.87;;;6.60;;
71164;SDS011;58859;55.132;-1.586;2022-11-20T09:08:33;11.53;;;6.37;;
71164;SDS011;58859;55.132;-1.586;2022-11-20T09:11:00;9.57;;;7.03;;
71164;SDS011;58859;55.132;-1.586;2022-11-20T09:13:26;11.73;;;7.10;;
71164;SDS011;58859;55.132;-1.586;2022-11-20T09:15:55;9.95;;;6.47;;
71164;SDS011;58859;55.132;-1.586;2022-11-20T09:18:21;8.38;;;5.82;;
71164;SDS011;58859;55.132;-1.586;2022-11-20T09:20:46;9.13;;;6.03;;
71164;SDS011;58859;55.132;-1.586;2022-11-20T09:23:12;10.23;;;6.32;;
71164;SDS011;58859;55.132;-1.586;2022-11-20T09:25:38;10.33;;;6.73;;
71164;SDS011;58859;55.132;-1.586;2022-11-20T09:28:03;11.27;;;7.33;;
71164;SDS011;58859;55.132;-1.586;2022-11-20T09:30:29;9.57;;;6.60;;
71164;SDS011;58859;55.132;-1.586;2022-11-20T09:32:54;10.90;;;6.47;;
71164;SDS011;58859;55.132;-1.586;2022-11-20T09:35:20;10.13;;;7.07;;
71164;SDS011;58859;55.132;-1.586;2022-11-20T09:37:45;14.40;;;8.50;;
71164;SDS011;58859;55.132;-1.586;2022-11-20T09:40:21;10.57;;;7.27;;
71164;SDS011;58859;55.132;-1.586;2022-11-20T09:48:25;14.30;;;7.85;;
71164;SDS011;58859;55.132;-1.586;2022-11-20T09:51:02;12.82;;;7.50;;
71164;SDS011;58859;55.132;-1.586;2022-11-20T09:53:50;12.17;;;7.20;;
71164;SDS011;58859;55.132;-1.586;2022-11-20T09:56:19;11.63;;;7.53;;
71164;SDS011;58859;55.132;-1.586;2022-11-20T09:58:45;12.70;;;7.88;;
71164;SDS011;58859;55.132;-1.586;2022-11-20T10:01:15;11.63;;;6.75;;
71164;SDS011;58859;55.132;-1.586;2022-11-20T10:06:34;15.63;;;8.80;;
71164;SDS011;58859;55.132;-1.586;2022-11-20T10:17:33;12.50;;;7.68;;
71164;SDS011;58859;55.132;-1.586;2022-11-20T10:20:16;13.17;;;7.33;;
71164;SDS011;58859;55.132;-1.586;2022-11-20T10:25:39;11.85;;;6.70;;
71164;SDS011;58859;55.132;-1.586;2022-11-20T10:30:56;11.85;;;6.72;;
71164;SDS011;58859;55.132;-1.586;2022-11-20T10:33:25;8.90;;;6.50;;
71164;SDS011;58859;55.132;-1.586;2022-11-20T10:35:58;10.55;;;6.45;;
71164;SDS011;58859;55.132;-1.586;2022-11-20T10:38:39;10.32;;;7.05;;
71164;SDS011;58859;55.132;-1.586;2022-11-20T10:41:07;10.43;;;6.85;;
71164;SDS011;58859;55.132;-1.586;2022-11-20T10:44:03;11.60;;;7.25;;
71164;SDS011;58859;55.132;-1.586;2022-11-20T10:46:33;11.10;;;7.07;;
71164;SDS011;58859;55.132;-1.586;2022-11-20T10:49:18;9.82;;;6.75;;
71164;SDS011;58859;55.132;-1.586;2022-11-20T10:57:12;9.98;;;6.28;;
71164;SDS011;58859;55.132;-1.586;2022-11-20T10:59:46;10.63;;;6.73;;
71164;SDS011;58859;55.132;-1.586;2022-11-20T11:02:24;12.63;;;6.63;;
71164;SDS011;58859;55.132;-1.586;2022-11-20T11:04:57;8.23;;;5.70;;
71164;SDS011;58859;55.132;-1.586;2022-11-20T11:07:45;8.75;;;5.47;;
71164;SDS011;58859;55.132;-1.586;2022-11-20T11:13:07;6.90;;;4.60;;
71164;SDS011;58859;55.132;-1.586;2022-11-20T11:15:44;6.88;;;4.10;;
71164;SDS011;58859;55.132;-1.586;2022-11-20T11:18:10;6.75;;;4.32;;
71164;SDS011;58859;55.132;-1.586;2022-11-20T11:20:36;8.82;;;4.50;;
71164;SDS011;58859;55.132;-1.586;2022-11-20T11:23:02;9.18;;;5.30;;
71164;SDS011;58859;55.132;-1.586;2022-11-20T11:28:18;7.47;;;5.33;;
71164;SDS011;58859;55.132;-1.586;2022-11-20T11:30:45;8.27;;;4.28;;
71164;SDS011;58859;55.132;-1.586;2022-11-20T11:33:20;11.80;;;4.72;;
71164;SDS011;58859;55.132;-1.586;2022-11-20T11:36:21;5.25;;;3.75;;
71164;SDS011;58859;55.132;-1.586;2022-11-20T11:38:43;3.45;;;2.78;;
71164;SDS011;58859;55.132;-1.586;2022-11-20T11:41:13;6.40;;;3.10;;
71164;SDS011;58859;55.132;-1.586;2022-11-20T11:43:48;6.53;;;2.85;;
71164;SDS011;58859;55.132;-1.586;2022-11-20T11:46:35;4.75;;;2.92;;
71164;SDS011;58859;55.132;-1.586;2022-11-20T11:51:41;7.70;;;3.40;;
71164;SDS011;58859;55.132;-1.586;2022-11-20T11:54:14;3.45;;;2.03;;
71164;SDS011;58859;55.132;-1.586;2022-11-20T11:56:43;6.70;;;1.80;;
71164;SDS011;58859;55.132;-1.586;2022-11-20T11:59:12;8.88;;;2.58;;
71164;SDS011;58859;55.132;-1.586;2022-11-20T12:01:44;6.05;;;2.10;;
71164;SDS011;58859;55.132;-1.586;2022-11-20T12:04:14;5.15;;;2.30;;
71164;SDS011;58859;55.132;-1.586;2022-11-20T12:06:47;6.15;;;2.30;;
71164;SDS011;58859;55.132;-1.586;2022-11-20T12:09:15;5.32;;;1.95;;
71164;SDS011;58859;55.132;-1.586;2022-11-20T12:11:54;5.68;;;2.75;;
71164;SDS011;58859;55.132;-1.586;2022-11-20T12:17:05;3.17;;;1.33;;
71164;SDS011;58859;55.132;-1.586;2022-11-20T12:19:33;4.30;;;1.30;;
71164;SDS011;58859;55.132;-1.586;2022-11-20T12:22:13;6.85;;;1.02;;
71164;SDS011;58859;55.132;-1.586;2022-11-20T12:30:21;3.17;;;1.13;;
71164;SDS011;58859;55.132;-1.586;2022-11-20T12:33:08;1.77;;;1.10;;
71164;SDS011;58859;55.132;-1.586;2022-11-20T12:36:15;2.72;;;1.27;;
71164;SDS011;58859;55.132;-1.586;2022-11-20T12:39:11;1.98;;;1.10;;
71164;SDS011;58859;55.132;-1.586;2022-11-20T12:50:32;1.33;;;0.60;;
71164;SDS011;58859;55.132;-1.586;2022-11-20T12:53:05;5.15;;;1.48;;
71164;SDS011;58859;55.132;-1.586;2022-11-20T12:58:27;5.18;;;1.55;;
71164;SDS011;58859;55.132;-1.586;2022-11-20T13:01:14;1.53;;;0.90;;
71164;SDS011;58859;55.132;-1.586;2022-11-20T13:04:18;2.38;;;1.08;;
71164;SDS011;58859;55.132;-1.586;2022-11-20T13:06:49;2.40;;;1.00;;
71164;SDS011;58859;55.132;-1.586;2022-11-20T13:09:16;3.42;;;1.02;;
71164;SDS011;58859;55.132;-1.586;2022-11-20T13:11:49;4.30;;;1.27;;
71164;SDS011;58859;55.132;-1.586;2022-11-20T13:14:24;3.93;;;0.93;;
71164;SDS011;58859;55.132;-1.586;2022-11-20T13:16:57;4.10;;;0.90;;
71164;SDS011;58859;55.132;-1.586;2022-11-20T13:19:25;3.85;;;0.80;;
71164;SDS011;58859;55.132;-1.586;2022-11-20T13:21:52;2.58;;;0.75;;
71164;SDS011;58859;55.132;-1.586;2022-11-20T13:29:29;4.68;;;0.90;;
71164;SDS011;58859;55.132;-1.586;2022-11-20T13:34:50;3.55;;;1.13;;
71164;SDS011;58859;55.132;-1.586;2022-11-20T13:37:27;1.90;;;0.98;;
71164;SDS011;58859;55.132;-1.586;2022-11-20T13:45:11;2.70;;;1.00;;
71164;SDS011;58859;55.132;-1.586;2022-11-20T13:47:48;4.05;;;1.38;;
71164;SDS011;58859;55.132;-1.586;2022-11-20T13:50:14;5.05;;;0.90;;
71164;SDS011;58859;55.132;-1.586;2022-11-20T14:01:16;3.63;;;0.80;;
71164;SDS011;58859;55.132;-1.586;2022-11-20T14:03:48;2.50;;;1.17;;
71164;SDS011;58859;55.132;-1.586;2022-11-20T14:06:25;2.20;;;0.93;;
71164;SDS011;58859;55.132;-1.586;2022-11-20T14:08:55;2.45;;;0.93;;
71164;SDS011;58859;55.132;-1.586;2022-11-20T14:11:27;2.80;;;1.20;;
71164;SDS011;58859;55.132;-1.586;2022-11-20T14:13:55;2.47;;;1.15;;
71164;SDS011;58859;55.132;-1.586;2022-11-20T14:16:39;1.98;;;0.95;;
71164;SDS011;58859;55.132;-1.586;2022-11-20T14:21:42;6.38;;;1.00;;
71164;SDS011;58859;55.132;-1.586;2022-11-20T14:24:10;3.60;;;0.70;;
71164;SDS011;58859;55.132;-1.586;2022-11-20T14:26:37;4.32;;;1.08;;
71164;SDS011;58859;55.132;-1.586;2022-11-20T14:29:11;4.63;;;1.00;;
71164;SDS011;58859;55.132;-1.586;2022-11-20T14:31:44;5.53;;;1.10;;
71164;SDS011;58859;55.132;-1.586;2022-11-20T14:34:12;5.72;;;1.27;;
71164;SDS011;58859;55.132;-1.586;2022-11-20T14:36:41;3.25;;;1.75;;
71164;SDS011;58859;55.132;-1.586;2022-11-20T14:39:09;4.88;;;1.02;;
71164;SDS011;58859;55.132;-1.586;2022-11-20T14:41:36;7.55;;;1.77;;
71164;SDS011;58859;55.132;-1.586;2022-11-20T14:44:02;3.77;;;0.83;;
71164;SDS011;58859;55.132;-1.586;2022-11-20T14:46:28;4.38;;;1.13;;
71164;SDS011;58859;55.132;-1.586;2022-11-20T14:48:56;9.53;;;1.20;;
71164;SDS011;58859;55.132;-1.586;2022-11-20T14:53:53;7.25;;;1.60;;
71164;SDS011;58859;55.132;-1.586;2022-11-20T14:56:22;6.37;;;1.40;;
71164;SDS011;58859;55.132;-1.586;2022-11-20T14:58:55;3.35;;;1.20;;
71164;SDS011;58859;55.132;-1.586;2022-11-20T15:01:25;5.47;;;1.30;;
71164;SDS011;58859;55.132;-1.586;2022-11-20T15:03:58;1.30;;;0.95;;
71164;SDS011;58859;55.132;-1.586;2022-11-20T15:06:30;4.93;;;1.10;;
71164;SDS011;58859;55.132;-1.586;2022-11-20T15:08:56;6.40;;;1.38;;
71164;SDS011;58859;55.132;-1.586;2022-11-20T15:11:25;2.47;;;1.00;;
71164;SDS011;58859;55.132;-1.586;2022-11-20T15:13:54;3.03;;;1.30;;
71164;SDS011;58859;55.132;-1.586;2022-11-20T15:16:21;5.10;;;1.23;;
71164;SDS011;58859;55.132;-1.586;2022-11-20T15:18:47;4.32;;;1.30;;
71164;SDS011;58859;55.132;-1.586;2022-11-20T15:21:13;27.00;;;13.25;;
71164;SDS011;58859;55.132;-1.586;2022-11-20T15:23:40;13.52;;;4.53;;
71164;SDS011;58859;55.132;-1.586;2022-11-20T15:26:07;7.28;;;1.90;;
71164;SDS011;58859;55.132;-1.586;2022-11-20T15:28:34;6.33;;;2.60;;
71164;SDS011;58859;55.132;-1.586;2022-11-20T15:31:02;8.10;;;2.95;;
71164;SDS011;58859;55.132;-1.586;2022-11-20T15:33:28;9.18;;;3.70;;
71164;SDS011;58859;55.132;-1.586;2022-11-20T15:35:55;7.03;;;4.22;;
71164;SDS011;58859;55.132;-1.586;2022-11-20T15:38:20;7.00;;;3.87;;
71164;SDS011;58859;55.132;-1.586;2022-11-20T15:40:45;8.77;;;4.67;;
71164;SDS011;58859;55.132;-1.586;2022-11-20T15:43:11;11.00;;;3.40;;
71164;SDS011;58859;55.132;-1.586;2022-11-20T15:45:40;5.40;;;3.83;;
71164;SDS011;58859;55.132;-1.586;2022-11-20T15:50:50;4.53;;;3.57;;
71164;SDS011;58859;55.132;-1.586;2022-11-20T15:53:19;6.30;;;3.28;;
71164;SDS011;58859;55.132;-1.586;2022-11-20T15:55:45;10.73;;;4.13;;
71164;SDS011;58859;55.132;-1.586;2022-11-20T15:58:10;8.13;;;3.00;;
71164;SDS011;58859;55.132;-1.586;2022-11-20T16:00:35;9.57;;;3.00;;
71164;SDS011;58859;55.132;-1.586;2022-11-20T16:03:01;8.13;;;3.60;;